createdAt,value
2023-02-24T00:02:01.294Z,23.33
2023-02-24T00:04:31.428Z,16.67
2023-02-24T00:06:59.909Z,22.97
2023-02-24T00:09:28.319Z,18.50
2023-02-24T00:12:04.300Z,18.97
2023-02-24T00:14:34.782Z,24.63
2023-02-24T00:17:02.597Z,22.27
2023-02-24T00:19:34.131Z,32.50
2023-02-24T00:22:02.388Z,22.63
2023-02-24T00:24:30.474Z,28.73
2023-02-24T00:27:00.167Z,29.87
2023-02-24T00:29:29.062Z,18.33
2023-02-24T00:32:01.424Z,19.37
2023-02-24T00:34:33.943Z,32.60
2023-02-24T00:37:01.720Z,23.67
2023-02-24T00:39:34.813Z,28.90
2023-02-24T00:42:05.095Z,28.40
2023-02-24T00:44:37.521Z,23.27
2023-02-24T00:47:06.476Z,25.13
2023-02-24T00:49:35.958Z,19.70
2023-02-24T00:52:04.840Z,20.90
2023-02-24T00:54:32.414Z,36.50
2023-02-24T00:56:59.304Z,22.53
2023-02-24T00:59:26.239Z,28.57
2023-02-24T01:01:54.836Z,26.50
2023-02-24T01:04:22.548Z,19.10
2023-02-24T01:06:51.672Z,19.27
2023-02-24T01:09:20.530Z,23.23
2023-02-24T01:12:08.186Z,23.17
2023-02-24T01:14:35.925Z,18.30
2023-02-24T01:17:03.918Z,40.83
2023-02-24T01:19:32.187Z,27.23
2023-02-24T01:22:07.342Z,46.20
2023-02-24T01:24:37.439Z,36.50
2023-02-24T01:27:05.282Z,31.57
2023-02-24T01:29:32.520Z,24.70
2023-02-24T01:31:59.489Z,21.93
2023-02-24T01:34:27.656Z,38.17
2023-02-24T01:36:54.937Z,19.70
2023-02-24T01:39:22.339Z,29.30
2023-02-24T01:41:50.898Z,29.50
2023-02-24T01:44:38.100Z,34.57
2023-02-24T01:47:04.985Z,21.30
2023-02-24T01:49:52.664Z,35.03
2023-02-24T01:52:25.640Z,24.20
2023-02-24T01:55:14.712Z,28.47
2023-02-24T01:57:41.779Z,24.67
2023-02-24T02:00:38.403Z,27.07
2023-02-24T02:03:15.676Z,41.67
2023-02-24T02:05:43.210Z,28.27
2023-02-24T02:08:11.194Z,18.00
2023-02-24T02:10:39.736Z,28.77
2023-02-24T02:13:06.886Z,22.50
2023-02-24T02:15:56.906Z,20.27
2023-02-24T02:18:38.410Z,27.03
2023-02-24T02:21:55.225Z,23.67
2023-02-24T02:24:30.334Z,22.73
2023-02-24T02:27:29.533Z,21.40
2023-02-24T02:30:32.185Z,36.17
2023-02-24T02:33:27.573Z,17.20
2023-02-24T02:36:07.087Z,17.93
2023-02-24T02:39:13.315Z,28.67
2023-02-24T02:41:54.116Z,20.13
2023-02-24T02:44:39.837Z,25.77
2023-02-24T02:47:18.300Z,24.03
2023-02-24T02:50:03.402Z,23.27
2023-02-24T02:52:36.695Z,22.10
2023-02-24T02:55:09.628Z,21.40
2023-02-24T02:57:40.250Z,24.33
2023-02-24T03:00:29.472Z,19.63
2023-02-24T03:03:12.753Z,30.70
2023-02-24T03:05:50.548Z,21.80
2023-02-24T03:08:25.844Z,17.83
2023-02-24T03:10:55.708Z,21.27
2023-02-24T03:13:25.854Z,18.80
2023-02-24T03:15:54.896Z,24.63
2023-02-24T03:18:32.696Z,10.90
2023-02-24T03:21:15.662Z,14.17
2023-02-24T03:23:50.260Z,20.63
2023-02-24T03:26:30.673Z,12.73
2023-02-24T03:29:36.564Z,17.37
2023-02-24T03:32:12.761Z,14.50
2023-02-24T03:35:19.566Z,21.47
2023-02-24T03:37:50.082Z,19.13
2023-02-24T03:40:18.301Z,12.97
2023-02-24T03:42:52.304Z,23.13
2023-02-24T03:45:22.838Z,17.87
2023-02-24T03:47:54.168Z,10.70
2023-02-24T03:50:27.011Z,14.07
2023-02-24T03:53:40.625Z,17.83
2023-02-24T03:56:40.516Z,22.50
2023-02-24T03:59:41.909Z,21.83
2023-02-24T04:02:22.353Z,13.83
2023-02-24T04:05:09.782Z,16.57
2023-02-24T04:07:54.890Z,15.57
2023-02-24T04:11:00.367Z,13.17
2023-02-24T04:14:08.047Z,11.43
2023-02-24T04:16:44.471Z,11.60
2023-02-24T04:19:16.655Z,11.03
2023-02-24T04:21:45.594Z,13.07
2023-02-24T04:24:15.931Z,8.50
2023-02-24T04:26:45.635Z,15.57
2023-02-24T04:29:20.597Z,21.40
2023-02-24T04:31:51.750Z,11.97
2023-02-24T04:34:20.259Z,14.13
2023-02-24T04:36:49.769Z,11.30
2023-02-24T04:39:19.005Z,9.20
2023-02-24T04:41:49.448Z,19.30
2023-02-24T04:44:24.294Z,17.43
2023-02-24T04:46:51.763Z,17.13
2023-02-24T04:49:20.019Z,15.77
2023-02-24T04:51:47.312Z,15.77
2023-02-24T04:54:17.658Z,13.83
2023-02-24T04:56:52.263Z,18.30
2023-02-24T04:59:20.138Z,12.53
2023-02-24T05:01:47.710Z,14.37
2023-02-24T05:04:14.853Z,11.10
2023-02-24T05:06:44.153Z,26.50
2023-02-24T05:09:19.467Z,11.63
2023-02-24T05:11:49.169Z,10.23
2023-02-24T05:14:20.869Z,13.00
2023-02-24T05:16:49.477Z,25.70
2023-02-24T05:19:37.175Z,15.93
2023-02-24T05:22:04.862Z,7.47
2023-02-24T05:24:31.822Z,12.30
2023-02-24T05:26:59.460Z,20.60
2023-02-24T05:29:35.727Z,10.50
2023-02-24T05:32:04.501Z,17.13
2023-02-24T05:34:33.512Z,14.10
2023-02-24T05:37:01.983Z,11.30
2023-02-24T05:39:29.303Z,8.30
2023-02-24T05:41:57.138Z,11.20
2023-02-24T05:44:26.628Z,12.10
2023-02-24T05:46:58.931Z,14.90
2023-02-24T05:49:35.557Z,11.70
2023-02-24T05:52:08.210Z,10.47
2023-02-24T05:54:41.878Z,9.50
2023-02-24T05:57:13.733Z,8.73
2023-02-24T05:59:42.069Z,17.67
2023-02-24T06:02:15.912Z,13.27
2023-02-24T06:04:53.908Z,20.70
2023-02-24T06:07:26.331Z,10.30
2023-02-24T06:09:56.925Z,19.57
2023-02-24T06:12:29.502Z,18.97
2023-02-24T06:14:58.231Z,10.33
2023-02-24T06:17:25.706Z,13.93
2023-02-24T06:19:53.736Z,8.67
2023-02-24T06:22:24.076Z,8.80
2023-02-24T06:24:51.170Z,9.57
2023-02-24T06:27:19.930Z,7.40
2023-02-24T06:29:51.335Z,14.37
2023-02-24T06:32:20.044Z,9.70
2023-02-24T06:34:47.032Z,13.67
2023-02-24T06:37:15.802Z,15.20
2023-02-24T06:39:43.458Z,14.30
2023-02-24T06:42:12.416Z,16.27
2023-02-24T06:44:40.559Z,11.27
2023-02-24T06:47:10.601Z,8.43
2023-02-24T06:49:37.732Z,13.93
2023-02-24T06:52:05.965Z,12.03
2023-02-24T06:54:36.045Z,11.30
2023-02-24T06:57:03.706Z,18.73
2023-02-24T06:59:32.246Z,9.67
2023-02-24T07:02:04.057Z,18.17
2023-02-24T07:04:30.979Z,10.40
2023-02-24T07:07:03.461Z,16.33
2023-02-24T07:09:31.353Z,11.47
2023-02-24T07:11:59.013Z,10.50
2023-02-24T07:14:30.682Z,5.80
2023-02-24T07:16:58.517Z,10.40
2023-02-24T07:19:29.225Z,8.73
2023-02-24T07:22:00.408Z,13.10
2023-02-24T07:24:33.632Z,31.93
2023-02-24T07:27:22.885Z,13.20
2023-02-24T07:29:53.309Z,8.90
2023-02-24T07:32:25.661Z,8.50
2023-02-24T07:34:53.108Z,18.37
2023-02-24T07:37:21.173Z,8.37
2023-02-24T07:39:48.034Z,6.63
2023-02-24T07:42:15.100Z,6.03
2023-02-24T07:44:44.589Z,10.20
2023-02-24T07:47:11.580Z,8.47
2023-02-24T07:49:40.962Z,19.37
2023-02-24T07:52:09.426Z,10.10
2023-02-24T07:54:37.425Z,5.10
2023-02-24T07:57:06.161Z,16.23
2023-02-24T07:59:37.641Z,16.43
2023-02-24T08:02:07.694Z,19.83
2023-02-24T08:04:36.459Z,18.03
2023-02-24T08:07:04.300Z,13.90
2023-02-24T08:09:45.358Z,9.13
2023-02-24T08:12:21.747Z,12.23
2023-02-24T08:14:51.866Z,6.93
2023-02-24T08:17:26.776Z,8.73
2023-02-24T08:20:34.250Z,12.27
2023-02-24T08:23:01.105Z,10.00
2023-02-24T08:25:35.962Z,8.67
2023-02-24T08:28:11.673Z,5.40
2023-02-24T08:30:45.678Z,7.73
2023-02-24T08:33:18.589Z,6.53
2023-02-24T08:35:45.729Z,13.10
2023-02-24T08:38:19.104Z,17.80
2023-02-24T08:40:51.309Z,6.87
2023-02-24T08:43:33.426Z,8.53
2023-02-24T08:46:26.591Z,24.87
2023-02-24T08:49:00.742Z,9.20
2023-02-24T08:51:35.753Z,7.87
2023-02-24T08:54:11.633Z,11.50
2023-02-24T08:56:43.697Z,6.20
2023-02-24T08:59:42.971Z,13.30
2023-02-24T09:02:18.719Z,9.90
2023-02-24T09:04:48.790Z,5.70
2023-02-24T09:07:19.046Z,7.07
2023-02-24T09:09:45.965Z,8.13
2023-02-24T09:12:24.839Z,13.33
2023-02-24T09:15:07.567Z,10.43
2023-02-24T09:17:40.920Z,8.00
2023-02-24T09:20:30.581Z,8.87
2023-02-24T09:23:07.379Z,22.33
2023-02-24T09:25:49.646Z,8.83
2023-02-24T09:28:27.514Z,20.27
2023-02-24T09:31:00.446Z,16.03
2023-02-24T09:33:42.384Z,11.50
2023-02-24T09:36:13.177Z,17.83
2023-02-24T09:39:20.358Z,7.17
2023-02-24T09:42:16.071Z,10.97
2023-02-24T09:44:48.336Z,10.10
2023-02-24T09:47:51.282Z,10.20
2023-02-24T09:51:04.504Z,16.83
2023-02-24T09:53:41.199Z,6.33
2023-02-24T09:56:37.248Z,12.73
2023-02-24T09:59:34.786Z,16.33
2023-02-24T10:02:44.298Z,11.33
2023-02-24T10:05:49.436Z,10.73
2023-02-24T10:08:35.684Z,7.27
2023-02-24T10:11:10.060Z,14.10
2023-02-24T10:13:48.824Z,8.90
2023-02-24T10:16:24.164Z,8.60
2023-02-24T10:19:34.261Z,10.83
2023-02-24T10:22:10.718Z,13.03
2023-02-24T10:25:01.443Z,9.40
2023-02-24T10:27:53.118Z,6.40
2023-02-24T10:31:10.424Z,13.40
2023-02-24T10:33:48.682Z,9.57
2023-02-24T10:36:20.037Z,7.53
2023-02-24T10:38:46.910Z,7.83
2023-02-24T10:41:14.954Z,11.10
2023-02-24T10:43:53.961Z,8.97
2023-02-24T10:46:42.571Z,5.63
2023-02-24T10:49:16.847Z,12.90
2023-02-24T10:51:51.378Z,15.67
2023-02-24T10:55:05.302Z,9.87
2023-02-24T10:57:44.749Z,16.13
2023-02-24T11:00:51.779Z,17.43
2023-02-24T11:03:36.041Z,11.37
2023-02-24T11:06:12.536Z,9.50
2023-02-24T11:09:08.709Z,6.83
2023-02-24T11:11:56.568Z,11.30
2023-02-24T11:14:41.822Z,10.70
2023-02-24T11:17:20.632Z,6.70
2023-02-24T11:20:18.911Z,8.07
2023-02-24T11:22:52.050Z,8.93
2023-02-24T11:25:26.663Z,14.10
2023-02-24T11:27:56.069Z,10.30
2023-02-24T11:31:13.337Z,10.30
2023-02-24T11:34:00.683Z,11.17
2023-02-24T11:36:46.150Z,9.23
2023-02-24T11:39:47.732Z,5.33
2023-02-24T11:42:27.108Z,12.83
2023-02-24T11:45:30.350Z,9.03
2023-02-24T11:48:25.310Z,8.60
2023-02-24T11:51:18.306Z,9.43
2023-02-24T11:54:18.267Z,8.90
2023-02-24T11:56:54.913Z,12.90
2023-02-24T11:59:45.456Z,6.00
2023-02-24T12:02:47.401Z,13.03
2023-02-24T12:05:18.751Z,17.93
2023-02-24T12:08:01.157Z,15.30
2023-02-24T12:10:31.599Z,15.40
2023-02-24T12:13:16.300Z,13.83
2023-02-24T12:16:08.499Z,16.50
2023-02-24T12:19:02.311Z,9.13
2023-02-24T12:21:39.463Z,11.60
2023-02-24T12:24:12.322Z,10.93
2023-02-24T12:27:09.373Z,16.37
2023-02-24T12:33:17.384Z,12.17
2023-02-24T12:36:12.530Z,27.43
2023-02-24T12:39:08.437Z,13.57
2023-02-24T12:42:01.531Z,13.07
2023-02-24T12:45:14.486Z,18.40
2023-02-24T12:48:24.422Z,13.47
2023-02-24T12:51:26.358Z,12.37
2023-02-24T12:54:29.045Z,19.03
2023-02-24T12:57:26.665Z,16.67
2023-02-24T12:59:56.986Z,18.00
2023-02-24T13:03:01.009Z,22.50
2023-02-24T13:05:45.986Z,18.53
2023-02-24T13:08:57.772Z,16.83
2023-02-24T13:11:56.685Z,18.67
2023-02-24T13:14:38.452Z,17.57
2023-02-24T13:17:26.975Z,15.50
2023-02-24T13:19:57.061Z,18.93
2023-02-24T13:22:32.903Z,20.40
2023-02-24T13:25:21.613Z,16.93
2023-02-24T13:28:36.189Z,15.93
2023-02-24T13:31:14.231Z,17.43
2023-02-24T13:33:43.690Z,23.13
2023-02-24T13:36:22.597Z,20.43
2023-02-24T13:39:06.092Z,19.73
2023-02-24T13:41:40.759Z,21.77
2023-02-24T13:44:28.609Z,18.40
2023-02-24T13:47:30.422Z,16.73
2023-02-24T13:50:52.370Z,17.70
2023-02-24T13:53:51.045Z,17.10
2023-02-24T13:57:00.252Z,20.63
2023-02-24T13:59:57.638Z,19.37
2023-02-24T14:02:29.986Z,19.27
2023-02-24T14:04:59.905Z,19.43
2023-02-24T14:07:33.823Z,21.27
2023-02-24T14:10:36.938Z,21.63
2023-02-24T14:13:12.007Z,20.93
2023-02-24T14:15:42.794Z,24.77
2023-02-24T14:18:28.507Z,30.00
2023-02-24T14:20:57.361Z,31.60
2023-02-24T14:23:28.984Z,21.80
2023-02-24T14:26:04.860Z,27.60
2023-02-24T14:28:35.151Z,25.57
2023-02-24T14:31:14.484Z,26.30
2023-02-24T14:33:44.276Z,25.03
2023-02-24T14:36:18.309Z,23.00
2023-02-24T14:38:45.717Z,26.93
2023-02-24T14:41:24.105Z,27.93
2023-02-24T14:43:52.397Z,21.87
2023-02-24T14:46:20.185Z,22.03
2023-02-24T14:48:53.516Z,28.60
2023-02-24T14:51:42.428Z,21.63
2023-02-24T14:54:15.037Z,31.60
2023-02-24T14:56:41.989Z,25.90
2023-02-24T14:59:23.243Z,22.63
2023-02-24T15:01:54.839Z,28.80
2023-02-24T15:04:37.793Z,21.73
2023-02-24T15:07:17.418Z,23.67
2023-02-24T15:09:46.968Z,25.53
2023-02-24T15:12:43.313Z,27.40
2023-02-24T15:15:27.192Z,25.40
2023-02-24T15:17:57.592Z,33.63
2023-02-24T15:20:34.043Z,36.83
2023-02-24T15:23:01.722Z,30.50
2023-02-24T15:25:46.397Z,28.33
2023-02-24T15:28:31.453Z,33.27
2023-02-24T15:31:16.413Z,31.67
2023-02-24T15:33:46.761Z,35.70
2023-02-24T15:36:20.943Z,35.77
2023-02-24T15:38:52.956Z,36.73
2023-02-24T15:41:19.886Z,34.60
2023-02-24T15:43:53.215Z,40.10
2023-02-24T15:46:34.433Z,34.03
2023-02-24T15:49:03.390Z,39.63
2023-02-24T15:51:37.877Z,47.03
2023-02-24T15:54:15.520Z,42.60
2023-02-24T15:56:43.510Z,43.20
2023-02-24T15:59:18.275Z,41.03
2023-02-24T16:01:45.153Z,40.13
2023-02-24T16:04:12.117Z,38.00
2023-02-24T16:06:43.528Z,42.27
2023-02-24T16:09:16.071Z,43.43
2023-02-24T16:11:46.427Z,47.27
2023-02-24T16:14:18.136Z,42.83
2023-02-24T16:16:45.980Z,48.70
2023-02-24T16:19:16.743Z,42.27
2023-02-24T16:21:44.038Z,47.27
2023-02-24T16:24:11.272Z,52.60
2023-02-24T16:26:40.257Z,47.23
2023-02-24T16:29:11.806Z,38.70
2023-02-24T16:31:39.947Z,48.57
2023-02-24T16:34:08.950Z,46.90
2023-02-24T16:36:36.053Z,44.73
2023-02-24T16:39:04.908Z,47.90
2023-02-24T16:41:32.135Z,38.77
2023-02-24T16:43:59.027Z,45.60
2023-02-24T16:46:29.692Z,39.33
2023-02-24T16:48:56.626Z,32.90
2023-02-24T16:51:23.467Z,28.17
2023-02-24T16:53:50.406Z,25.43
2023-02-24T16:56:18.094Z,24.90
2023-02-24T16:58:44.984Z,23.37
2023-02-24T17:01:19.134Z,19.80
2023-02-24T17:03:48.783Z,15.37
2023-02-24T17:06:15.924Z,13.97
2023-02-24T17:08:44.446Z,12.27
2023-02-24T17:11:16.354Z,12.30
2023-02-24T17:13:43.914Z,9.63
2023-02-24T17:16:11.386Z,8.93
2023-02-24T17:18:38.245Z,6.53
2023-02-24T17:21:05.878Z,6.70
2023-02-24T17:23:32.780Z,5.80
2023-02-24T17:26:01.978Z,8.50
2023-02-24T17:28:28.914Z,5.10
2023-02-24T17:30:56.190Z,4.50
2023-02-24T17:33:23.199Z,4.63
2023-02-24T17:35:50.087Z,6.87
2023-02-24T17:38:20.051Z,3.70
2023-02-24T17:40:47.380Z,4.03
2023-02-24T17:43:14.732Z,6.73
2023-02-24T17:45:44.883Z,7.73
2023-02-24T17:48:13.486Z,7.60
2023-02-24T17:50:45.277Z,5.90
2023-02-24T17:53:12.352Z,3.17
2023-02-24T17:55:40.361Z,2.10
2023-02-24T17:58:10.054Z,4.30
2023-02-24T18:00:38.385Z,3.90
2023-02-24T18:03:05.736Z,3.73
2023-02-24T18:05:32.669Z,4.33
2023-02-24T18:07:59.663Z,7.70
2023-02-24T18:10:27.339Z,2.80
2023-02-24T18:12:54.274Z,5.70
2023-02-24T18:15:21.239Z,5.50
2023-02-24T18:17:48.218Z,5.03
2023-02-24T18:20:15.100Z,3.57
2023-02-24T18:22:42.319Z,5.80
2023-02-24T18:25:09.431Z,1.70
2023-02-24T18:27:36.456Z,2.57
2023-02-24T18:30:03.883Z,4.00
2023-02-24T18:32:30.848Z,5.13
2023-02-24T18:34:57.829Z,4.67
2023-02-24T18:37:24.722Z,4.33
2023-02-24T18:39:53.626Z,2.47
2023-02-24T18:42:20.751Z,3.23
2023-02-24T18:44:47.800Z,2.50
2023-02-24T18:47:14.722Z,5.53
2023-02-24T18:49:41.574Z,3.00
2023-02-24T18:52:08.584Z,5.23
2023-02-24T18:54:35.431Z,6.43
2023-02-24T18:57:02.587Z,2.53
2023-02-24T19:02:11.474Z,4.20
2023-02-24T19:04:38.440Z,5.37
2023-02-24T19:07:05.450Z,6.43
2023-02-24T19:09:32.384Z,5.17
2023-02-24T19:11:59.355Z,2.87
2023-02-24T19:14:26.251Z,6.30
2023-02-24T19:16:53.163Z,9.43
2023-02-24T19:19:20.109Z,6.93
2023-02-24T19:21:48.437Z,14.03
2023-02-24T19:24:16.800Z,9.97
2023-02-24T19:26:45.891Z,5.53
2023-02-24T19:29:13.143Z,4.40
2023-02-24T19:31:40.334Z,12.97
2023-02-24T19:34:10.884Z,5.33
2023-02-24T19:36:38.650Z,11.63
2023-02-24T19:39:08.635Z,15.70
2023-02-24T19:41:36.963Z,5.97
2023-02-24T19:46:44.684Z,3.60
2023-02-24T19:49:11.631Z,5.93
2023-02-24T19:51:38.795Z,5.63
2023-02-24T19:54:06.381Z,8.43
2023-02-24T19:56:36.307Z,10.57
2023-02-24T19:59:05.093Z,14.93
2023-02-24T20:01:32.305Z,9.20
2023-02-24T20:04:02.430Z,13.57
2023-02-24T20:06:35.656Z,7.53
2023-02-24T20:09:07.182Z,11.80
2023-02-24T20:11:38.858Z,10.80
2023-02-24T20:14:06.827Z,9.03
2023-02-24T20:16:34.880Z,8.30
2023-02-24T20:19:02.195Z,13.97
2023-02-24T20:21:30.609Z,11.63
2023-02-24T20:24:02.066Z,3.30
2023-02-24T20:26:30.102Z,10.23
2023-02-24T20:28:57.275Z,15.13
2023-02-24T20:31:24.446Z,8.50
2023-02-24T20:33:51.346Z,14.90
2023-02-24T20:36:24.190Z,9.93
2023-02-24T20:38:52.233Z,16.97
2023-02-24T20:41:20.856Z,20.73
2023-02-24T20:43:48.328Z,11.73
2023-02-24T20:46:25.020Z,13.73
2023-02-24T20:48:55.507Z,18.20
2023-02-24T20:51:23.271Z,19.97
2023-02-24T20:53:57.389Z,9.60
2023-02-24T20:56:26.514Z,24.63
2023-02-24T20:58:59.929Z,21.10
2023-02-24T21:01:28.968Z,22.53
2023-02-24T21:03:55.946Z,11.43
2023-02-24T21:06:23.380Z,19.40
2023-02-24T21:08:52.552Z,15.63
2023-02-24T21:11:20.598Z,12.50
2023-02-24T21:13:49.871Z,23.73
2023-02-24T21:18:58.990Z,13.13
2023-02-24T21:21:26.296Z,37.77
2023-02-24T21:23:53.250Z,34.33
2023-02-24T21:26:20.548Z,19.30
2023-02-24T21:28:47.757Z,13.70
2023-02-24T21:31:17.417Z,13.83
2023-02-24T21:33:44.813Z,9.57
2023-02-24T21:36:14.477Z,8.93
2023-02-24T21:38:41.887Z,13.30
2023-02-24T21:41:16.052Z,15.70
2023-02-24T21:43:44.416Z,10.90
2023-02-24T21:46:13.402Z,15.87
2023-02-24T21:48:41.927Z,11.37
2023-02-24T21:51:11.191Z,16.73
2023-02-24T21:53:40.901Z,12.73
2023-02-24T21:56:28.786Z,15.33
2023-02-24T21:59:07.076Z,18.50
2023-02-24T22:01:36.232Z,13.70
2023-02-24T22:04:06.570Z,19.80
2023-02-24T22:06:35.492Z,19.07
2023-02-24T22:09:04.757Z,8.33
2023-02-24T22:11:37.613Z,13.03
2023-02-24T22:14:10.733Z,18.77
2023-02-24T22:16:37.724Z,13.17
2023-02-24T22:19:05.124Z,13.47
2023-02-24T22:21:32.165Z,24.70
2023-02-24T22:24:01.693Z,16.40
2023-02-24T22:26:31.943Z,14.23
2023-02-24T22:28:59.688Z,15.07
2023-02-24T22:31:29.378Z,19.33
2023-02-24T22:33:56.329Z,15.00
2023-02-24T22:36:31.448Z,26.17
2023-02-24T22:38:59.426Z,21.40
2023-02-24T22:41:29.767Z,16.20
2023-02-24T22:43:56.909Z,26.40
2023-02-24T22:46:32.694Z,22.07
2023-02-24T22:49:00.121Z,17.87
2023-02-24T22:51:27.150Z,14.47
2023-02-24T22:53:55.479Z,18.03
2023-02-24T22:56:25.590Z,14.33
2023-02-24T22:58:53.025Z,9.00
2023-02-24T23:01:24.047Z,22.13
2023-02-24T23:03:51.247Z,16.63
2023-02-24T23:06:21.483Z,13.07
2023-02-24T23:08:50.592Z,11.70
2023-02-24T23:11:25.596Z,25.97
2023-02-24T23:13:52.712Z,14.13
2023-02-24T23:16:23.008Z,30.90
2023-02-24T23:18:51.070Z,17.17
2023-02-24T23:21:22.279Z,21.30
2023-02-24T23:23:50.107Z,11.90
2023-02-24T23:26:18.174Z,22.07
2023-02-24T23:28:46.229Z,13.73
2023-02-24T23:31:18.962Z,14.90
2023-02-24T23:33:46.324Z,13.80
2023-02-24T23:36:13.240Z,17.80
2023-02-24T23:38:40.105Z,12.03
2023-02-24T23:41:10.800Z,7.17
2023-02-24T23:43:38.889Z,11.03
2023-02-24T23:46:10.316Z,19.87
2023-02-24T23:48:37.542Z,12.93
2023-02-24T23:51:07.622Z,20.47
2023-02-24T23:53:43.094Z,8.63
2023-02-24T23:56:14.071Z,8.57
2023-02-24T23:58:41.246Z,12.20
